sensor_id;sensor_type;location;lat;lon;timestamp;P1;durP1;ratioP1;P2;durP2;ratioP2
11827;SDS011;5971;49.646;8.568;2023-11-18T00:00:36;12.13;;;5.80;;
11827;SDS011;5971;49.646;8.568;2023-11-18T00:03:38;9.40;;;5.32;;
11827;SDS011;5971;49.646;8.568;2023-11-18T00:06:39;12.05;;;5.45;;
11827;SDS011;5971;49.646;8.568;2023-11-18T00:09:41;10.73;;;5.70;;
11827;SDS011;5971;49.646;8.568;2023-11-18T00:12:46;10.95;;;5.68;;
11827;SDS011;5971;49.646;8.568;2023-11-18T00:15:48;9.43;;;5.70;;
11827;SDS011;5971;49.646;8.568;2023-11-18T00:18:49;10.65;;;5.35;;
11827;SDS011;5971;49.646;8.568;2023-11-18T00:21:51;12.65;;;5.47;;
11827;SDS011;5971;49.646;8.568;2023-11-18T00:24:52;11.27;;;4.82;;
11827;SDS011;5971;49.646;8.568;2023-11-18T00:27:53;9.32;;;4.78;;
11827;SDS011;5971;49.646;8.568;2023-11-18T00:30:55;9.82;;;5.43;;
11827;SDS011;5971;49.646;8.568;2023-11-18T00:33:57;9.95;;;5.88;;
11827;SDS011;5971;49.646;8.568;2023-11-18T00:36:58;12.15;;;5.75;;
11827;SDS011;5971;49.646;8.568;2023-11-18T00:39:59;9.68;;;5.13;;
11827;SDS011;5971;49.646;8.568;2023-11-18T00:43:01;11.82;;;5.50;;
11827;SDS011;5971;49.646;8.568;2023-11-18T00:46:03;12.32;;;5.80;;
11827;SDS011;5971;49.646;8.568;2023-11-18T00:49:06;11.45;;;5.88;;
11827;SDS011;5971;49.646;8.568;2023-11-18T00:52:07;9.40;;;5.88;;
11827;SDS011;5971;49.646;8.568;2023-11-18T00:55:09;10.95;;;5.60;;
11827;SDS011;5971;49.646;8.568;2023-11-18T00:58:13;10.25;;;5.63;;
11827;SDS011;5971;49.646;8.568;2023-11-18T01:01:14;10.98;;;5.80;;
11827;SDS011;5971;49.646;8.568;2023-11-18T01:04:19;13.18;;;5.75;;
11827;SDS011;5971;49.646;8.568;2023-11-18T01:07:21;10.90;;;6.10;;
11827;SDS011;5971;49.646;8.568;2023-11-18T01:10:22;12.63;;;5.93;;
11827;SDS011;5971;49.646;8.568;2023-11-18T01:13:23;11.70;;;5.70;;
11827;SDS011;5971;49.646;8.568;2023-11-18T01:16:27;11.57;;;6.28;;
11827;SDS011;5971;49.646;8.568;2023-11-18T01:19:29;10.82;;;6.00;;
11827;SDS011;5971;49.646;8.568;2023-11-18T01:22:31;10.93;;;5.55;;
11827;SDS011;5971;49.646;8.568;2023-11-18T01:25:32;11.48;;;5.43;;
11827;SDS011;5971;49.646;8.568;2023-11-18T01:28:34;13.43;;;6.10;;
11827;SDS011;5971;49.646;8.568;2023-11-18T01:31:40;13.40;;;6.63;;
11827;SDS011;5971;49.646;8.568;2023-11-18T01:34:52;13.65;;;7.32;;
11827;SDS011;5971;49.646;8.568;2023-11-18T01:37:54;14.95;;;7.05;;
11827;SDS011;5971;49.646;8.568;2023-11-18T01:40:56;12.70;;;7.10;;
11827;SDS011;5971;49.646;8.568;2023-11-18T01:43:58;12.63;;;6.43;;
11827;SDS011;5971;49.646;8.568;2023-11-18T01:47:00;13.07;;;7.30;;
11827;SDS011;5971;49.646;8.568;2023-11-18T01:50:05;11.38;;;5.88;;
11827;SDS011;5971;49.646;8.568;2023-11-18T01:53:07;14.02;;;7.55;;
11827;SDS011;5971;49.646;8.568;2023-11-18T01:56:09;13.52;;;6.53;;
11827;SDS011;5971;49.646;8.568;2023-11-18T01:59:12;13.00;;;6.00;;
11827;SDS011;5971;49.646;8.568;2023-11-18T02:02:19;11.75;;;5.65;;
11827;SDS011;5971;49.646;8.568;2023-11-18T02:05:22;14.32;;;6.75;;
11827;SDS011;5971;49.646;8.568;2023-11-18T02:08:23;12.55;;;6.05;;
11827;SDS011;5971;49.646;8.568;2023-11-18T02:11:34;14.25;;;6.10;;
11827;SDS011;5971;49.646;8.568;2023-11-18T02:14:42;11.57;;;6.50;;
11827;SDS011;5971;49.646;8.568;2023-11-18T02:17:44;17.08;;;7.07;;
11827;SDS011;5971;49.646;8.568;2023-11-18T02:20:46;14.32;;;6.57;;
11827;SDS011;5971;49.646;8.568;2023-11-18T02:23:48;12.63;;;5.82;;
11827;SDS011;5971;49.646;8.568;2023-11-18T02:26:50;13.23;;;6.70;;
11827;SDS011;5971;49.646;8.568;2023-11-18T02:29:51;13.40;;;6.80;;
11827;SDS011;5971;49.646;8.568;2023-11-18T02:33:27;14.60;;;6.32;;
11827;SDS011;5971;49.646;8.568;2023-11-18T02:36:26;13.68;;;6.70;;
11827;SDS011;5971;49.646;8.568;2023-11-18T02:39:40;14.75;;;5.97;;
11827;SDS011;5971;49.646;8.568;2023-11-18T02:42:44;12.90;;;6.13;;
11827;SDS011;5971;49.646;8.568;2023-11-18T02:45:46;12.25;;;6.28;;
11827;SDS011;5971;49.646;8.568;2023-11-18T02:48:48;14.45;;;6.70;;
11827;SDS011;5971;49.646;8.568;2023-11-18T02:51:49;15.43;;;6.90;;
11827;SDS011;5971;49.646;8.568;2023-11-18T02:54:50;14.60;;;7.38;;
11827;SDS011;5971;49.646;8.568;2023-11-18T02:57:52;12.93;;;6.05;;
11827;SDS011;5971;49.646;8.568;2023-11-18T03:00:53;12.25;;;5.95;;
11827;SDS011;5971;49.646;8.568;2023-11-18T03:03:54;12.73;;;6.35;;
11827;SDS011;5971;49.646;8.568;2023-11-18T03:06:57;13.43;;;6.07;;
11827;SDS011;5971;49.646;8.568;2023-11-18T03:09:58;13.85;;;6.28;;
11827;SDS011;5971;49.646;8.568;2023-11-18T03:13:01;13.75;;;6.15;;
11827;SDS011;5971;49.646;8.568;2023-11-18T03:16:06;12.75;;;6.13;;
11827;SDS011;5971;49.646;8.568;2023-11-18T03:19:08;15.23;;;6.82;;
11827;SDS011;5971;49.646;8.568;2023-11-18T03:22:10;13.75;;;6.70;;
11827;SDS011;5971;49.646;8.568;2023-11-18T03:25:11;14.48;;;6.35;;
11827;SDS011;5971;49.646;8.568;2023-11-18T03:28:13;13.55;;;6.45;;
11827;SDS011;5971;49.646;8.568;2023-11-18T03:31:15;12.65;;;5.60;;
11827;SDS011;5971;49.646;8.568;2023-11-18T03:34:18;13.63;;;6.40;;
11827;SDS011;5971;49.646;8.568;2023-11-18T03:37:22;12.77;;;5.85;;
11827;SDS011;5971;49.646;8.568;2023-11-18T03:40:24;13.45;;;6.68;;
11827;SDS011;5971;49.646;8.568;2023-11-18T03:43:26;13.85;;;6.80;;
11827;SDS011;5971;49.646;8.568;2023-11-18T03:46:27;17.23;;;8.13;;
11827;SDS011;5971;49.646;8.568;2023-11-18T03:49:35;14.52;;;7.05;;
11827;SDS011;5971;49.646;8.568;2023-11-18T03:52:37;16.42;;;6.85;;
11827;SDS011;5971;49.646;8.568;2023-11-18T03:55:39;15.07;;;6.95;;
11827;SDS011;5971;49.646;8.568;2023-11-18T03:58:40;17.80;;;6.85;;
11827;SDS011;5971;49.646;8.568;2023-11-18T04:01:43;18.50;;;8.20;;
11827;SDS011;5971;49.646;8.568;2023-11-18T04:04:45;17.92;;;7.90;;
11827;SDS011;5971;49.646;8.568;2023-11-18T04:07:46;17.45;;;7.65;;
11827;SDS011;5971;49.646;8.568;2023-11-18T04:10:47;17.00;;;7.38;;
11827;SDS011;5971;49.646;8.568;2023-11-18T04:13:49;18.65;;;7.30;;
11827;SDS011;5971;49.646;8.568;2023-11-18T04:16:50;14.55;;;7.15;;
11827;SDS011;5971;49.646;8.568;2023-11-18T04:19:51;15.35;;;7.95;;
11827;SDS011;5971;49.646;8.568;2023-11-18T04:22:53;14.70;;;7.47;;
11827;SDS011;5971;49.646;8.568;2023-11-18T04:25:55;13.40;;;7.22;;
11827;SDS011;5971;49.646;8.568;2023-11-18T04:28:56;17.58;;;7.03;;
11827;SDS011;5971;49.646;8.568;2023-11-18T04:31:58;16.15;;;7.65;;
11827;SDS011;5971;49.646;8.568;2023-11-18T04:35:01;12.32;;;6.72;;
11827;SDS011;5971;49.646;8.568;2023-11-18T04:38:08;14.00;;;7.38;;
11827;SDS011;5971;49.646;8.568;2023-11-18T04:41:09;13.52;;;6.78;;
11827;SDS011;5971;49.646;8.568;2023-11-18T04:44:11;17.10;;;7.18;;
11827;SDS011;5971;49.646;8.568;2023-11-18T04:47:12;14.02;;;6.82;;
11827;SDS011;5971;49.646;8.568;2023-11-18T04:50:13;13.60;;;7.00;;
11827;SDS011;5971;49.646;8.568;2023-11-18T04:53:15;13.93;;;7.28;;
11827;SDS011;5971;49.646;8.568;2023-11-18T04:56:17;13.93;;;7.40;;
11827;SDS011;5971;49.646;8.568;2023-11-18T04:59:19;15.07;;;7.30;;
11827;SDS011;5971;49.646;8.568;2023-11-18T05:02:21;14.93;;;7.80;;
11827;SDS011;5971;49.646;8.568;2023-11-18T05:05:23;20.20;;;8.27;;
11827;SDS011;5971;49.646;8.568;2023-11-18T05:08:24;16.52;;;7.78;;
11827;SDS011;5971;49.646;8.568;2023-11-18T05:11:27;14.07;;;7.38;;
11827;SDS011;5971;49.646;8.568;2023-11-18T05:14:28;16.65;;;8.02;;
11827;SDS011;5971;49.646;8.568;2023-11-18T05:17:30;17.63;;;8.27;;
11827;SDS011;5971;49.646;8.568;2023-11-18T05:20:31;16.80;;;7.95;;
11827;SDS011;5971;49.646;8.568;2023-11-18T05:23:35;20.25;;;9.18;;
11827;SDS011;5971;49.646;8.568;2023-11-18T05:26:37;19.20;;;8.05;;
11827;SDS011;5971;49.646;8.568;2023-11-18T05:29:38;17.08;;;8.35;;
11827;SDS011;5971;49.646;8.568;2023-11-18T05:32:42;19.83;;;8.45;;
11827;SDS011;5971;49.646;8.568;2023-11-18T05:35:44;18.05;;;8.80;;
11827;SDS011;5971;49.646;8.568;2023-11-18T05:38:54;22.52;;;9.45;;
11827;SDS011;5971;49.646;8.568;2023-11-18T05:41:56;22.13;;;9.13;;
11827;SDS011;5971;49.646;8.568;2023-11-18T05:44:58;20.60;;;8.75;;
11827;SDS011;5971;49.646;8.568;2023-11-18T05:48:01;21.55;;;9.05;;
11827;SDS011;5971;49.646;8.568;2023-11-18T05:51:04;21.35;;;9.27;;
11827;SDS011;5971;49.646;8.568;2023-11-18T05:54:05;21.60;;;9.25;;
11827;SDS011;5971;49.646;8.568;2023-11-18T05:57:07;21.45;;;9.50;;
11827;SDS011;5971;49.646;8.568;2023-11-18T06:00:09;21.45;;;9.82;;
11827;SDS011;5971;49.646;8.568;2023-11-18T06:03:10;19.45;;;9.48;;
11827;SDS011;5971;49.646;8.568;2023-11-18T06:06:13;23.35;;;9.50;;
11827;SDS011;5971;49.646;8.568;2023-11-18T06:09:15;24.02;;;10.32;;
11827;SDS011;5971;49.646;8.568;2023-11-18T06:12:21;25.40;;;10.30;;
11827;SDS011;5971;49.646;8.568;2023-11-18T06:15:24;29.05;;;11.13;;
11827;SDS011;5971;49.646;8.568;2023-11-18T06:18:25;27.38;;;11.57;;
11827;SDS011;5971;49.646;8.568;2023-11-18T06:21:26;31.75;;;13.27;;
11827;SDS011;5971;49.646;8.568;2023-11-18T06:24:31;28.67;;;12.57;;
11827;SDS011;5971;49.646;8.568;2023-11-18T06:27:32;30.05;;;12.05;;
11827;SDS011;5971;49.646;8.568;2023-11-18T06:30:33;26.50;;;12.23;;
11827;SDS011;5971;49.646;8.568;2023-11-18T06:33:39;30.17;;;12.07;;
11827;SDS011;5971;49.646;8.568;2023-11-18T06:36:45;30.08;;;12.05;;
11827;SDS011;5971;49.646;8.568;2023-11-18T06:39:46;32.90;;;12.10;;
11827;SDS011;5971;49.646;8.568;2023-11-18T06:42:50;34.53;;;11.95;;
11827;SDS011;5971;49.646;8.568;2023-11-18T06:45:51;30.80;;;12.43;;
11827;SDS011;5971;49.646;8.568;2023-11-18T06:48:53;35.75;;;13.45;;
11827;SDS011;5971;49.646;8.568;2023-11-18T06:52:05;32.42;;;12.73;;
11827;SDS011;5971;49.646;8.568;2023-11-18T06:55:07;35.25;;;13.45;;
11827;SDS011;5971;49.646;8.568;2023-11-18T06:58:09;33.38;;;12.30;;
11827;SDS011;5971;49.646;8.568;2023-11-18T07:01:14;38.13;;;14.25;;
11827;SDS011;5971;49.646;8.568;2023-11-18T07:04:16;30.75;;;12.07;;
11827;SDS011;5971;49.646;8.568;2023-11-18T07:07:17;36.78;;;13.63;;
11827;SDS011;5971;49.646;8.568;2023-11-18T07:10:19;28.77;;;10.65;;
11827;SDS011;5971;49.646;8.568;2023-11-18T07:13:22;27.13;;;11.30;;
11827;SDS011;5971;49.646;8.568;2023-11-18T07:16:24;31.27;;;11.80;;
11827;SDS011;5971;49.646;8.568;2023-11-18T07:19:26;30.92;;;10.65;;
11827;SDS011;5971;49.646;8.568;2023-11-18T07:22:27;29.75;;;11.23;;
11827;SDS011;5971;49.646;8.568;2023-11-18T07:25:28;29.52;;;10.85;;
11827;SDS011;5971;49.646;8.568;2023-11-18T07:28:30;33.08;;;12.68;;
11827;SDS011;5971;49.646;8.568;2023-11-18T07:31:32;25.83;;;10.80;;
11827;SDS011;5971;49.646;8.568;2023-11-18T07:34:34;34.60;;;11.50;;
11827;SDS011;5971;49.646;8.568;2023-11-18T07:37:36;28.10;;;11.27;;
11827;SDS011;5971;49.646;8.568;2023-11-18T07:40:38;34.45;;;11.55;;
11827;SDS011;5971;49.646;8.568;2023-11-18T07:43:44;33.05;;;11.32;;
11827;SDS011;5971;49.646;8.568;2023-11-18T07:46:45;29.10;;;10.77;;
11827;SDS011;5971;49.646;8.568;2023-11-18T07:49:47;27.27;;;11.10;;
11827;SDS011;5971;49.646;8.568;2023-11-18T07:52:49;38.25;;;14.23;;
11827;SDS011;5971;49.646;8.568;2023-11-18T07:55:52;36.35;;;14.60;;
11827;SDS011;5971;49.646;8.568;2023-11-18T07:58:53;35.00;;;12.45;;
11827;SDS011;5971;49.646;8.568;2023-11-18T08:01:55;27.48;;;10.30;;
11827;SDS011;5971;49.646;8.568;2023-11-18T08:04:57;36.05;;;13.57;;
11827;SDS011;5971;49.646;8.568;2023-11-18T08:07:59;29.30;;;9.73;;
11827;SDS011;5971;49.646;8.568;2023-11-18T08:11:00;30.10;;;10.45;;
11827;SDS011;5971;49.646;8.568;2023-11-18T08:14:01;33.20;;;11.45;;
11827;SDS011;5971;49.646;8.568;2023-11-18T08:17:04;27.00;;;10.25;;
11827;SDS011;5971;49.646;8.568;2023-11-18T08:20:06;31.35;;;11.40;;
11827;SDS011;5971;49.646;8.568;2023-11-18T08:23:15;27.63;;;10.43;;
11827;SDS011;5971;49.646;8.568;2023-11-18T08:26:16;30.45;;;12.55;;
11827;SDS011;5971;49.646;8.568;2023-11-18T08:29:18;32.58;;;12.25;;
11827;SDS011;5971;49.646;8.568;2023-11-18T08:32:20;32.22;;;12.40;;
11827;SDS011;5971;49.646;8.568;2023-11-18T08:35:21;29.30;;;10.50;;
11827;SDS011;5971;49.646;8.568;2023-11-18T08:38:23;32.88;;;12.00;;
11827;SDS011;5971;49.646;8.568;2023-11-18T08:41:25;31.52;;;12.75;;
11827;SDS011;5971;49.646;8.568;2023-11-18T08:44:27;28.52;;;10.77;;
11827;SDS011;5971;49.646;8.568;2023-11-18T08:47:29;22.98;;;9.77;;
11827;SDS011;5971;49.646;8.568;2023-11-18T08:50:34;26.63;;;10.65;;
11827;SDS011;5971;49.646;8.568;2023-11-18T08:53:35;21.38;;;9.50;;
11827;SDS011;5971;49.646;8.568;2023-11-18T08:56:42;20.77;;;8.50;;
11827;SDS011;5971;49.646;8.568;2023-11-18T08:59:45;19.25;;;8.05;;
11827;SDS011;5971;49.646;8.568;2023-11-18T09:02:46;20.77;;;8.65;;
11827;SDS011;5971;49.646;8.568;2023-11-18T09:05:55;18.10;;;8.60;;
11827;SDS011;5971;49.646;8.568;2023-11-18T09:09:00;20.67;;;8.05;;
11827;SDS011;5971;49.646;8.568;2023-11-18T09:12:07;17.27;;;8.10;;
11827;SDS011;5971;49.646;8.568;2023-11-18T09:15:09;18.70;;;8.13;;
11827;SDS011;5971;49.646;8.568;2023-11-18T09:18:11;20.90;;;9.40;;
11827;SDS011;5971;49.646;8.568;2023-11-18T09:21:12;23.85;;;11.80;;
11827;SDS011;5971;49.646;8.568;2023-11-18T09:24:20;20.77;;;9.75;;
11827;SDS011;5971;49.646;8.568;2023-11-18T09:27:24;20.13;;;10.40;;
11827;SDS011;5971;49.646;8.568;2023-11-18T09:30:25;20.02;;;10.63;;
11827;SDS011;5971;49.646;8.568;2023-11-18T09:33:27;10.98;;;5.90;;
11827;SDS011;5971;49.646;8.568;2023-11-18T09:36:34;15.82;;;8.68;;
11827;SDS011;5971;49.646;8.568;2023-11-18T09:39:35;17.95;;;9.30;;
11827;SDS011;5971;49.646;8.568;2023-11-18T09:42:40;16.15;;;9.07;;
11827;SDS011;5971;49.646;8.568;2023-11-18T09:48:49;12.70;;;7.53;;
11827;SDS011;5971;49.646;8.568;2023-11-18T09:52:03;10.45;;;6.07;;
11827;SDS011;5971;49.646;8.568;2023-11-18T09:55:09;11.85;;;5.93;;
11827;SDS011;5971;49.646;8.568;2023-11-18T09:58:17;12.55;;;5.70;;
11827;SDS011;5971;49.646;8.568;2023-11-18T10:01:20;11.43;;;5.82;;
11827;SDS011;5971;49.646;8.568;2023-11-18T10:04:26;14.10;;;8.00;;
11827;SDS011;5971;49.646;8.568;2023-11-18T10:07:29;13.65;;;6.78;;
11827;SDS011;5971;49.646;8.568;2023-11-18T10:10:34;12.75;;;5.35;;
11827;SDS011;5971;49.646;8.568;2023-11-18T10:13:39;17.63;;;8.65;;
11827;SDS011;5971;49.646;8.568;2023-11-18T10:16:45;14.05;;;7.80;;
11827;SDS011;5971;49.646;8.568;2023-11-18T10:20:06;14.38;;;8.27;;
11827;SDS011;5971;49.646;8.568;2023-11-18T10:23:14;12.02;;;5.40;;
11827;SDS011;5971;49.646;8.568;2023-11-18T10:26:27;11.57;;;6.20;;
11827;SDS011;5971;49.646;8.568;2023-11-18T10:29:28;13.45;;;6.43;;
11827;SDS011;5971;49.646;8.568;2023-11-18T10:32:30;14.38;;;6.40;;
11827;SDS011;5971;49.646;8.568;2023-11-18T10:35:36;11.15;;;5.80;;
11827;SDS011;5971;49.646;8.568;2023-11-18T10:38:39;11.50;;;6.68;;
11827;SDS011;5971;49.646;8.568;2023-11-18T10:41:44;13.95;;;6.82;;
11827;SDS011;5971;49.646;8.568;2023-11-18T10:44:55;12.20;;;6.63;;
11827;SDS011;5971;49.646;8.568;2023-11-18T10:47:58;11.98;;;6.88;;
11827;SDS011;5971;49.646;8.568;2023-11-18T10:51:00;12.30;;;7.05;;
11827;SDS011;5971;49.646;8.568;2023-11-18T10:54:02;11.95;;;6.43;;
11827;SDS011;5971;49.646;8.568;2023-11-18T10:57:06;10.55;;;5.72;;
11827;SDS011;5971;49.646;8.568;2023-11-18T11:00:09;11.32;;;6.32;;
11827;SDS011;5971;49.646;8.568;2023-11-18T11:03:17;10.25;;;6.10;;
11827;SDS011;5971;49.646;8.568;2023-11-18T11:06:19;12.23;;;6.68;;
11827;SDS011;5971;49.646;8.568;2023-11-18T11:09:25;9.32;;;5.22;;
11827;SDS011;5971;49.646;8.568;2023-11-18T11:16:06;10.52;;;5.68;;
11827;SDS011;5971;49.646;8.568;2023-11-18T11:22:37;8.52;;;4.55;;
11827;SDS011;5971;49.646;8.568;2023-11-18T11:25:44;13.63;;;7.05;;
11827;SDS011;5971;49.646;8.568;2023-11-18T11:35:10;12.35;;;7.18;;
11827;SDS011;5971;49.646;8.568;2023-11-18T11:38:20;11.65;;;6.55;;
11827;SDS011;5971;49.646;8.568;2023-11-18T11:41:22;11.38;;;6.45;;
11827;SDS011;5971;49.646;8.568;2023-11-18T11:44:28;11.88;;;6.53;;
11827;SDS011;5971;49.646;8.568;2023-11-18T11:47:32;13.15;;;7.03;;
11827;SDS011;5971;49.646;8.568;2023-11-18T11:50:38;12.88;;;7.28;;
11827;SDS011;5971;49.646;8.568;2023-11-18T11:53:47;13.20;;;5.95;;
11827;SDS011;5971;49.646;8.568;2023-11-18T11:56:55;12.05;;;5.70;;
11827;SDS011;5971;49.646;8.568;2023-11-18T12:00:02;10.00;;;5.65;;
11827;SDS011;5971;49.646;8.568;2023-11-18T12:03:16;8.98;;;4.63;;
11827;SDS011;5971;49.646;8.568;2023-11-18T12:06:19;10.40;;;5.07;;
11827;SDS011;5971;49.646;8.568;2023-11-18T12:09:29;9.60;;;5.07;;
11827;SDS011;5971;49.646;8.568;2023-11-18T12:12:34;10.63;;;4.82;;
11827;SDS011;5971;49.646;8.568;2023-11-18T12:15:54;8.23;;;4.43;;
11827;SDS011;5971;49.646;8.568;2023-11-18T12:22:20;7.50;;;3.80;;
11827;SDS011;5971;49.646;8.568;2023-11-18T12:25:30;7.70;;;3.78;;
11827;SDS011;5971;49.646;8.568;2023-11-18T12:28:34;7.78;;;3.78;;
11827;SDS011;5971;49.646;8.568;2023-11-18T12:31:46;7.10;;;4.00;;
11827;SDS011;5971;49.646;8.568;2023-11-18T12:34:51;6.70;;;3.90;;
11827;SDS011;5971;49.646;8.568;2023-11-18T12:38:00;7.60;;;3.60;;
11827;SDS011;5971;49.646;8.568;2023-11-18T12:41:08;7.35;;;3.92;;
11827;SDS011;5971;49.646;8.568;2023-11-18T12:47:20;8.68;;;3.92;;
11827;SDS011;5971;49.646;8.568;2023-11-18T12:50:24;7.38;;;3.75;;
11827;SDS011;5971;49.646;8.568;2023-11-18T12:53:26;5.50;;;3.03;;
11827;SDS011;5971;49.646;8.568;2023-11-18T12:56:29;7.20;;;4.05;;
11827;SDS011;5971;49.646;8.568;2023-11-18T12:59:32;8.38;;;3.85;;
11827;SDS011;5971;49.646;8.568;2023-11-18T13:02:33;5.93;;;4.03;;
11827;SDS011;5971;49.646;8.568;2023-11-18T13:05:35;6.93;;;3.75;;
11827;SDS011;5971;49.646;8.568;2023-11-18T13:08:38;6.68;;;3.63;;
11827;SDS011;5971;49.646;8.568;2023-11-18T13:11:40;8.35;;;3.80;;
11827;SDS011;5971;49.646;8.568;2023-11-18T13:14:43;7.35;;;3.28;;
11827;SDS011;5971;49.646;8.568;2023-11-18T13:17:59;8.45;;;3.67;;
11827;SDS011;5971;49.646;8.568;2023-11-18T13:21:01;8.48;;;3.22;;
11827;SDS011;5971;49.646;8.568;2023-11-18T13:24:04;7.70;;;4.22;;
11827;SDS011;5971;49.646;8.568;2023-11-18T13:27:06;4.80;;;2.55;;
11827;SDS011;5971;49.646;8.568;2023-11-18T13:30:09;10.20;;;5.07;;
11827;SDS011;5971;49.646;8.568;2023-11-18T13:33:15;8.18;;;3.90;;
11827;SDS011;5971;49.646;8.568;2023-11-18T13:36:17;7.47;;;3.65;;
11827;SDS011;5971;49.646;8.568;2023-11-18T13:39:19;4.85;;;2.75;;
11827;SDS011;5971;49.646;8.568;2023-11-18T13:42:21;6.05;;;3.10;;
11827;SDS011;5971;49.646;8.568;2023-11-18T13:45:24;4.28;;;2.88;;
11827;SDS011;5971;49.646;8.568;2023-11-18T13:48:38;5.20;;;2.85;;
11827;SDS011;5971;49.646;8.568;2023-11-18T13:51:41;4.22;;;2.45;;
11827;SDS011;5971;49.646;8.568;2023-11-18T13:54:45;6.00;;;2.60;;
11827;SDS011;5971;49.646;8.568;2023-11-18T13:57:47;4.75;;;2.45;;
11827;SDS011;5971;49.646;8.568;2023-11-18T14:00:49;4.82;;;2.53;;
11827;SDS011;5971;49.646;8.568;2023-11-18T14:03:50;4.78;;;2.45;;
11827;SDS011;5971;49.646;8.568;2023-11-18T14:06:53;8.27;;;2.67;;
11827;SDS011;5971;49.646;8.568;2023-11-18T14:13:04;4.82;;;2.05;;
11827;SDS011;5971;49.646;8.568;2023-11-18T14:16:07;4.45;;;2.20;;
11827;SDS011;5971;49.646;8.568;2023-11-18T14:19:11;3.90;;;2.22;;
11827;SDS011;5971;49.646;8.568;2023-11-18T14:22:12;4.90;;;2.88;;
11827;SDS011;5971;49.646;8.568;2023-11-18T14:25:14;4.47;;;2.47;;
11827;SDS011;5971;49.646;8.568;2023-11-18T14:28:15;6.38;;;2.92;;
11827;SDS011;5971;49.646;8.568;2023-11-18T14:31:17;5.10;;;2.28;;
11827;SDS011;5971;49.646;8.568;2023-11-18T14:34:19;3.45;;;1.90;;
11827;SDS011;5971;49.646;8.568;2023-11-18T14:37:20;4.50;;;1.92;;
11827;SDS011;5971;49.646;8.568;2023-11-18T14:40:21;6.93;;;2.67;;
11827;SDS011;5971;49.646;8.568;2023-11-18T14:43:25;7.60;;;2.53;;
11827;SDS011;5971;49.646;8.568;2023-11-18T14:46:26;7.68;;;2.55;;
11827;SDS011;5971;49.646;8.568;2023-11-18T14:49:28;5.10;;;2.80;;
11827;SDS011;5971;49.646;8.568;2023-11-18T14:52:30;4.93;;;1.85;;
11827;SDS011;5971;49.646;8.568;2023-11-18T14:55:34;5.18;;;3.05;;
11827;SDS011;5971;49.646;8.568;2023-11-18T14:58:35;5.88;;;3.13;;
11827;SDS011;5971;49.646;8.568;2023-11-18T15:01:36;8.82;;;4.30;;
11827;SDS011;5971;49.646;8.568;2023-11-18T15:04:38;9.15;;;4.38;;
11827;SDS011;5971;49.646;8.568;2023-11-18T15:07:40;10.10;;;4.03;;
11827;SDS011;5971;49.646;8.568;2023-11-18T15:10:42;6.25;;;2.75;;
11827;SDS011;5971;49.646;8.568;2023-11-18T15:13:45;8.82;;;3.90;;
11827;SDS011;5971;49.646;8.568;2023-11-18T15:16:46;8.02;;;3.45;;
11827;SDS011;5971;49.646;8.568;2023-11-18T15:19:48;7.78;;;3.65;;
11827;SDS011;5971;49.646;8.568;2023-11-18T15:22:52;6.90;;;3.20;;
11827;SDS011;5971;49.646;8.568;2023-11-18T15:25:53;9.65;;;3.50;;
11827;SDS011;5971;49.646;8.568;2023-11-18T15:28:55;6.85;;;3.25;;
11827;SDS011;5971;49.646;8.568;2023-11-18T15:31:58;4.65;;;2.78;;
11827;SDS011;5971;49.646;8.568;2023-11-18T15:34:59;4.78;;;2.33;;
11827;SDS011;5971;49.646;8.568;2023-11-18T15:38:01;5.25;;;2.33;;
11827;SDS011;5971;49.646;8.568;2023-11-18T15:41:02;4.22;;;2.40;;
11827;SDS011;5971;49.646;8.568;2023-11-18T15:44:04;6.45;;;3.40;;
11827;SDS011;5971;49.646;8.568;2023-11-18T15:47:05;6.18;;;3.25;;
11827;SDS011;5971;49.646;8.568;2023-11-18T15:50:06;7.28;;;3.58;;
11827;SDS011;5971;49.646;8.568;2023-11-18T15:53:08;9.07;;;3.28;;
11827;SDS011;5971;49.646;8.568;2023-11-18T15:56:14;5.70;;;3.47;;
11827;SDS011;5971;49.646;8.568;2023-11-18T15:59:16;7.32;;;4.50;;
11827;SDS011;5971;49.646;8.568;2023-11-18T16:02:18;6.85;;;3.72;;
11827;SDS011;5971;49.646;8.568;2023-11-18T16:05:20;8.57;;;3.92;;
11827;SDS011;5971;49.646;8.568;2023-11-18T16:08:22;8.40;;;4.55;;
11827;SDS011;5971;49.646;8.568;2023-11-18T16:11:23;12.32;;;4.70;;
11827;SDS011;5971;49.646;8.568;2023-11-18T16:14:25;8.63;;;3.85;;
11827;SDS011;5971;49.646;8.568;2023-11-18T16:17:26;8.32;;;4.43;;
11827;SDS011;5971;49.646;8.568;2023-11-18T16:20:29;5.63;;;3.33;;
11827;SDS011;5971;49.646;8.568;2023-11-18T16:23:33;6.97;;;3.90;;
11827;SDS011;5971;49.646;8.568;2023-11-18T16:26:39;7.53;;;3.53;;
11827;SDS011;5971;49.646;8.568;2023-11-18T16:29:41;7.70;;;3.85;;
11827;SDS011;5971;49.646;8.568;2023-11-18T16:32:43;8.77;;;4.22;;
11827;SDS011;5971;49.646;8.568;2023-11-18T16:35:50;7.80;;;4.28;;
11827;SDS011;5971;49.646;8.568;2023-11-18T16:38:54;6.30;;;4.00;;
11827;SDS011;5971;49.646;8.568;2023-11-18T16:41:59;7.32;;;4.15;;
11827;SDS011;5971;49.646;8.568;2023-11-18T16:45:01;7.53;;;4.10;;
11827;SDS011;5971;49.646;8.568;2023-11-18T16:48:02;7.22;;;4.05;;
11827;SDS011;5971;49.646;8.568;2023-11-18T16:51:06;6.68;;;3.97;;
11827;SDS011;5971;49.646;8.568;2023-11-18T16:54:07;6.20;;;3.75;;
11827;SDS011;5971;49.646;8.568;2023-11-18T16:57:09;6.75;;;3.42;;
11827;SDS011;5971;49.646;8.568;2023-11-18T17:00:10;7.45;;;3.47;;
11827;SDS011;5971;49.646;8.568;2023-11-18T17:03:23;7.28;;;3.40;;
11827;SDS011;5971;49.646;8.568;2023-11-18T17:06:24;6.40;;;3.17;;
11827;SDS011;5971;49.646;8.568;2023-11-18T17:09:26;5.75;;;3.35;;
11827;SDS011;5971;49.646;8.568;2023-11-18T17:12:27;5.90;;;2.63;;
11827;SDS011;5971;49.646;8.568;2023-11-18T17:15:28;5.80;;;3.03;;
11827;SDS011;5971;49.646;8.568;2023-11-18T17:18:30;4.53;;;2.28;;
11827;SDS011;5971;49.646;8.568;2023-11-18T17:21:33;5.70;;;3.10;;
11827;SDS011;5971;49.646;8.568;2023-11-18T17:24:34;7.40;;;3.38;;
11827;SDS011;5971;49.646;8.568;2023-11-18T17:30:40;3.85;;;2.00;;
11827;SDS011;5971;49.646;8.568;2023-11-18T17:33:41;6.05;;;2.90;;
11827;SDS011;5971;49.646;8.568;2023-11-18T17:36:43;6.82;;;3.30;;
11827;SDS011;5971;49.646;8.568;2023-11-18T17:39:45;6.40;;;3.17;;
11827;SDS011;5971;49.646;8.568;2023-11-18T17:42:46;6.13;;;2.72;;
11827;SDS011;5971;49.646;8.568;2023-11-18T17:45:49;8.05;;;3.20;;
11827;SDS011;5971;49.646;8.568;2023-11-18T17:48:50;7.50;;;2.75;;
11827;SDS011;5971;49.646;8.568;2023-11-18T17:51:52;7.40;;;3.22;;
11827;SDS011;5971;49.646;8.568;2023-11-18T17:54:54;7.85;;;2.47;;
11827;SDS011;5971;49.646;8.568;2023-11-18T17:57:56;8.43;;;3.45;;
11827;SDS011;5971;49.646;8.568;2023-11-18T18:00:58;7.32;;;3.33;;
11827;SDS011;5971;49.646;8.568;2023-11-18T18:03:59;4.78;;;3.35;;
11827;SDS011;5971;49.646;8.568;2023-11-18T18:07:01;6.60;;;3.42;;
11827;SDS011;5971;49.646;8.568;2023-11-18T18:10:02;7.00;;;4.38;;
11827;SDS011;5971;49.646;8.568;2023-11-18T18:13:04;5.47;;;3.33;;
11827;SDS011;5971;49.646;8.568;2023-11-18T18:16:05;9.18;;;5.00;;
11827;SDS011;5971;49.646;8.568;2023-11-18T18:19:07;7.32;;;3.08;;
11827;SDS011;5971;49.646;8.568;2023-11-18T18:22:08;5.63;;;3.78;;
11827;SDS011;5971;49.646;8.568;2023-11-18T18:25:11;4.40;;;3.05;;
11827;SDS011;5971;49.646;8.568;2023-11-18T18:28:13;6.03;;;2.90;;
11827;SDS011;5971;49.646;8.568;2023-11-18T18:31:15;7.38;;;2.80;;
11827;SDS011;5971;49.646;8.568;2023-11-18T18:34:17;4.75;;;2.20;;
11827;SDS011;5971;49.646;8.568;2023-11-18T18:37:19;4.57;;;2.60;;
11827;SDS011;5971;49.646;8.568;2023-11-18T18:40:23;3.78;;;1.65;;
11827;SDS011;5971;49.646;8.568;2023-11-18T18:43:24;6.53;;;2.65;;
11827;SDS011;5971;49.646;8.568;2023-11-18T18:46:26;4.38;;;1.90;;
11827;SDS011;5971;49.646;8.568;2023-11-18T18:49:28;4.07;;;1.70;;
11827;SDS011;5971;49.646;8.568;2023-11-18T18:52:30;4.35;;;2.20;;
11827;SDS011;5971;49.646;8.568;2023-11-18T18:55:31;7.43;;;2.67;;